Capri, Italy

7:47 AM CET on February 11, 2016 (GMT +0100)
Ciraccio | | Change Station
CLOSE
Current Station
Personal Weather Station
Location: Procida, NA
Elevation: 46 ft
Nearby Weather Stations

Elev 46 ft 40.76 °N, 14.01 °E | Updated 12 seconds ago

Rain
Rain
51.4 °F
Feels Like 51.4 °F
N
0.6
Wind Variable Wind from NNE
Gusts 3.1 mph

Today
High -- | Low -- °F
--% Chance of Precip.
Yesterday
High -- | Low -- °F
Precip. -- in
Pressure 29.71 in
Visibility 1.9 miles
Clouds Few 1000 ft
Scattered Clouds 2000 ft
Mostly Cloudy 5000 ft
Dew Point 47 °F
Humidity 84%
Rainfall 0.37 in
Snow Depth Not available.
7:02 AM 5:32 PM
Waxing Crescent, 10% visible
METAR LIRN 110620Z VRB05KT 3000 RA FEW010 SCT020 BKN050 10/09 Q1006 NOSIG
Pressure 29.71 in
Visibility 1.9 miles
Clouds Few 1000 ft
Scattered Clouds 2000 ft
Mostly Cloudy 5000 ft
Dew Point 47 °F
Humidity 84%
Rainfall 0.37 in
Snow Depth Not available.
7:02 AM 5:32 PM
Waxing Crescent, 10% visible
METAR LIRN 110620Z VRB05KT 3000 RA FEW010 SCT020 BKN050 10/09 Q1006 NOSIG

10-Day Weather Forecast

Almanac

Astronomy

Feb. 11, 2016 Rise Set
Actual Time
Civil Twilight
Nautical Twilight
Astronomical Twilight
Moon
Length of Visible Light
Length of Day
Tomorrow will be .
, % of the Moon is Illuminated

Today's Extremes

Country Highs Country Lows

Community

WunderPhotos

Upload Photos

1,892,028 photos uploaded!

WunderBlog® & News

Nearby

Air Quality

  Air Quality AQ Index Pollutant
Not available.

Snow Depth

Station Depth Elevation

Earthquake Activity

City Distance Mag. Time & Date
Minimum magnitude displayed is 2.5.

Coastal Water Temperatures

Place Temperature

Stations

Nearby Weather Stations

Station Location Temp. Windchill Dew Point Humidity Wind Precip. Elev Updated Type